Loisir ou Compétition : Rejoignez un Club de la Fédération

Résultats

LA SAVOYARDE 73 CAISSE D'EPARGNE

LA FECLAZ

FP Dames

Jury de Compétition

Délégué Technique :
RAMIERE BERNARD (SA)
D.T. Adjoint :
 
Dir. Epreuve :
REMY PATRICK (SA)

Caractéristiques de la Piste

Piste :
Site de Replis
Distance :
10 km
Point Haut :
 
Point Bas :
 
Montée Tot. :
 
Montée Max. :
 
Homologation :
-1

Pénalité Appliquée :
 
Coefficient :
 

Catégorie :
CAD->M12
Style :
L
Clt Dos Clt/Cat Code An Nom Prénom Com Club Temps Ecart Points
Classés
1 536 1/JEUN FFS2625587 1994 PERRILLAT AMEDE ALISON MB SC GD BORNAN 28:21.0 00:00.0
2 539 1/JUN FFS2613215 1992 PESSEY IRIS MB SC GD BORNAN 28:31.5 00:10.5
3 535 2/JEUN FFS2603113 1995 PERRILLAT MAILYS MB SC GD BORNAN 29:11.9 00:50.9
4 533 1/CAD FFS2637963 1996 [G]PERRILLAT BOTTONET JUSTIN MB SC GD BORNAN 29:44.5 01:23.5
5 534 2/CAD FFS2637958 1996 [G]AVRILLON ANAELLE MB SC GD BORNAN 30:02.8 01:41.8
6 491 3/CAD FFS2620599 1996 [G]PEPIN JULIE SA ES BESSANS 30:52.9 02:31.9
7 479 4/CAD FFS2654516 1996 [G]TOURNAY FANNY SA CS LA FECLAZ 31:38.6 03:17.6
8 512 5/CAD FFS2643743 1997 [G]BASTARD ISALINE MB SC GD BORNAN 31:54.2 03:33.2
9 454 6/CAD FFS2624726 1996 [G]CAILLEAU CELINE MB LES GETS S.C 32:28.8 04:07.8
10 513 7/CAD FFS2637325 1996 [G]BE LOUISE SA CS LA FECLAZ 32:52.3 04:31.3
11 515 8/CAD FFS2636678 1996 [G]VERBRUGGHE FLORINE AU SC DE BESSE 33:21.5 05:00.5
12 458 9/CAD FFS2619948 1997 [G]BRON JULIE MB LES GETS S.C 33:51.4 05:30.4
13 460 10/CAD FFS2637807 1997 [G]MOLEINS CHLOE SA CS LA FECLAZ 33:53.2 05:32.2
14 510 3/JEUN FFS2629881 1994 DENNEULIN MARIE MB CHABLAIS NOR 33:56.0 05:35.0
15 537 2/JUN FFS2623651 1993 PERRILLAT MONET CAMILLE MB SC GD BORNAN 35:04.6 06:43.6
16 509 11/CAD FFS2635595 1997 [G]ECHAVIDRE MARGOT AU SC DE BESSE 35:57.9 07:36.9
17 514 12/CAD FFS2649444 1996 [G]LAITHIER DEBORAH SA CS LA FECLAZ 36:53.6 08:32.6
18 486 13/CAD FFS2639283 1997 [G]PETIT ERSKINE ERIN SA CS LA FECLAZ 36:54.3 08:33.3
19 456 1/SEN TIC6530478 1984 REY-GORREZ Camille 37:43.3 09:22.3
20 482 4/JEUN TIC6530373 1994 JACQUIER morgane 39:03.2 10:42.2
21 468 5/JEUN TIC6530411 1994 MARIAT CLEMENCE 40:46.3 12:25.3
22 476 1/Mas3 LCN11269114 1967 FERRY FLORENCE 40:54.2 12:33.2
23 506 14/CAD FFS2631493 1996 [G]MANUEL MARINE SA MONOLITHE SF 41:12.1 12:51.1
24 525 15/CAD TIC6530240 1996 BOHN Chloé 41:23.9 13:02.9
25 503 2/SEN LCN11270841 1984 COSTE CAMILLE 42:49.5 14:28.5
26 542 1/Mas7 TIC6530466 1949 POPLIN FRANCINE 43:43.5 15:22.5
27 494 1/Mas4 TIC6530366 1963 HABLOT catherine 46:46.4 18:25.4
28 518 2/Mas4 TIC6530379 1965 JOTHY ANNE CATHERINE 47:11.1 18:50.1
29 492 2/Mas3 FFS2644184 1967 MOREL Isabelle AU PLOMB CANTAL 47:11.7 18:50.7
30 451 1/Mas5 LCN11275931 1957 VERT MARTINE SA SC LES ARCS 48:25.7 20:04.7
31 475 16/CAD LCN11285361 1996 PACLET MARGOT MB RANDO CHERAN 48:56.9 20:35.9
32 487 2/Mas7 FFS2348301 1949 GUET HELENE BO SC NEVERS 49:48.7 21:27.7
33 541 2/Mas5 TIC6530335 1959 GALUZO VALERIE 50:44.8 22:23.8
34 478 1/Mas1 TIC6530354 1979 GOETZ frédérique 51:21.5 23:00.5
35 505 1/Mas6 TIC6530461 1953 PILLET NICOLE 53:44.9 25:23.9
36 474 1/Mas8 TIC6530391 1946 LAURENS JOSIANE 1h01:48.5 33:27.5
Abandons
455 TIC6530527 1971 VAYSSE Isabelle
Non partants
508 FFS2626907 1994 HOURS MELANIE SA CS LA FECLAZ